Station Historical Data
Daily Summary for March 5, 2017 Units:  Metric    English   Both
« Previous Day
Next Day »
Daily Weekly Monthly Yearly Custom
  High: Low: Average:
Temperature: 2.7 °C -14 °C -5.6 °C
Dew Point: -9.4 °C -17.1 °C -13.7 °C
Humidity: 79% 28% 56%
Wind Speed: 14.5km/h 0km/h 3.9km/h
Wind Gust: 24.1km/h - -
Wind- - East
Pressure: 1042.2 hPa 1029 hPa -
Precipitation: 0 mm    
Historical Graphs
 
 
Tabular Data for March 5, 2017
Time Temperature Dew Point Pressure Wind Wind Speed Wind Gust Humidity Rainfall Rate (Hourly)
00:04 -12.1 °C -16.7 °C 1041.2 hPa Calm     69% 0 mm
00:09 -12.1 °C -16.4 °C 1041.2 hPa Calm     70% 0 mm
00:14 -12.1 °C -16.4 °C 1041.2 hPa Calm   3.2 km/h 70% 0 mm
00:19 -12.2 °C -16.5 °C 1041.2 hPa Calm   3.2 km/h 70% 0 mm
00:24 -12.3 °C -16.6 °C 1041.2 hPa Calm   3.2 km/h 70% 0 mm
00:29 -12.2 °C -16.7 °C 1041.2 hPa Calm   3.2 km/h 69% 0 mm
00:34 -12.2 °C -16.7 °C 1041.2 hPa Calm   3.2 km/h 69% 0 mm
00:39 -12.3 °C -16.8 °C 1041.2 hPa Calm     69% 0 mm
00:44 -12.3 °C -16.5 °C 1041.2 hPa Calm     71% 0 mm
00:49 -12.4 °C -16.6 °C 1041.2 hPa Calm     71% 0 mm
00:54 -12.4 °C -16.6 °C 1041.5 hPa Calm     71% 0 mm
00:59 -12.5 °C -16.5 °C 1041.5 hPa Calm     72% 0 mm
01:05 -12.4 °C -16.4 °C 1041.5 hPa Calm     72% 0 mm
01:10 -12.4 °C -16.3 °C 1041.5 hPa Calm     73% 0 mm
01:15 -12.4 °C -16.3 °C 1041.5 hPa Calm     73% 0 mm
01:20 -12.6 °C -16.4 °C 1041.5 hPa Calm     73% 0 mm
01:25 -12.6 °C -16.4 °C 1041.5 hPa Calm     73% 0 mm
01:30 -12.6 °C -16.4 °C 1041.5 hPa Calm     73% 0 mm
01:35 -12.4 °C -16.3 °C 1041.5 hPa Calm     73% 0 mm
01:40 -12.6 °C -16.4 °C 1041.5 hPa Calm     73% 0 mm
01:45 -12.6 °C -16.3 °C 1041.5 hPa Calm     74% 0 mm
01:50 -12.7 °C -16.3 °C 1041.5 hPa Calm     74% 0 mm
01:55 -12.6 °C -16.3 °C 1041.5 hPa Calm     74% 0 mm
02:00 -12.6 °C -16.3 °C 1041.9 hPa Calm     74% 0 mm
02:05 -12.6 °C -16.1 °C 1041.5 hPa Calm     75% 0 mm
02:10 -12.6 °C -16.1 °C 1041.9 hPa Calm     75% 0 mm
02:15 -12.6 °C -16.1 °C 1041.5 hPa Calm     75% 0 mm
02:20 -12.6 °C -16.1 °C 1041.5 hPa Calm     75% 0 mm
02:25 -12.6 °C -15.9 °C 1041.9 hPa Calm     76% 0 mm
02:30 -12.6 °C -15.9 °C 1041.9 hPa Calm   3.2 km/h 76% 0 mm
02:35 -12.7 °C -16 °C 1041.9 hPa Calm   3.2 km/h 76% 0 mm
02:40 -12.7 °C -16 °C 1041.9 hPa Calm     76% 0 mm
02:45 -12.7 °C -16 °C 1041.9 hPa Calm   1.6 km/h 76% 0 mm
02:50 -12.5 °C -16 °C 1041.5 hPa Calm     75% 0 mm
02:55 -12.3 °C -16 °C 1041.5 hPa Calm     74% 0 mm
03:00 -12.3 °C -15.9 °C 1041.5 hPa Calm     74% 0 mm
03:05 -12.3 °C -15.9 °C 1041.5 hPa Calm     74% 0 mm
03:10 -12.3 °C -16.2 °C 1041.5 hPa Calm     73% 0 mm
03:15 -12.5 °C -16.2 °C 1041.5 hPa Calm     74% 0 mm
03:20 -12.5 °C -16 °C 1041.5 hPa Calm     75% 0 mm
03:25 -12.4 °C -15.9 °C 1041.5 hPa Calm     75% 0 mm
03:30 -12.6 °C -16.1 °C 1041.9 hPa Calm     75% 0 mm
03:35 -12.6 °C -15.9 °C 1041.9 hPa Calm     76% 0 mm
03:40 -12.7 °C -16 °C 1041.9 hPa Calm     76% 0 mm
03:45 -12.7 °C -15.9 °C 1041.5 hPa Calm     77% 0 mm
03:50 -12.7 °C -15.9 °C 1041.9 hPa SE 1.6 km/h 3.2 km/h 77% 0 mm
03:55 -12.8 °C -15.9 °C 1041.9 hPa Calm   3.2 km/h 77% 0 mm
04:00 -12.8 °C -15.8 °C 1041.9 hPa SE 3.2 km/h 3.2 km/h 78% 0 mm
04:05 -12.8 °C -15.9 °C 1041.9 hPa Calm   3.2 km/h 78% 0 mm
04:10 -12.9 °C -15.9 °C 1041.9 hPa SE 1.6 km/h 3.2 km/h 78% 0 mm
04:15 -13 °C -16.1 °C 1041.9 hPa Calm   3.2 km/h 78% 0 mm
04:19 -13.1 °C -16.1 °C 1041.9 hPa Calm   3.2 km/h 78% 0 mm
04:25 -13.2 °C -16.2 °C 1041.9 hPa Calm     78% 0 mm
04:30 -13.2 °C -16.2 °C 1041.9 hPa Calm     78% 0 mm
04:35 -13.3 °C -16.3 °C 1041.9 hPa Calm     78% 0 mm
04:40 -13.3 °C -16.3 °C 1042.2 hPa Calm     78% 0 mm
04:45 -13.4 °C -16.4 °C 1041.9 hPa Calm     78% 0 mm
04:50 -13.4 °C -16.3 °C 1041.9 hPa Calm     79% 0 mm
04:55 -13.4 °C -16.3 °C 1041.9 hPa Calm     79% 0 mm
05:00 -13.4 °C -16.3 °C 1041.9 hPa Calm     79% 0 mm
05:04 -13.3 °C -16.2 °C 1041.9 hPa Calm   3.2 km/h 79% 0 mm
05:09 -13.3 °C -16.2 °C 1041.9 hPa East 1.6 km/h 4.8 km/h 79% 0 mm
05:15 -13.4 °C -16.3 °C 1041.5 hPa SE 1.6 km/h 3.2 km/h 79% 0 mm
05:19 -13.4 °C -16.3 °C 1041.5 hPa ESE 1.6 km/h 4.8 km/h 79% 0 mm
05:25 -13.6 °C -16.6 °C 1041.5 hPa ESE 1.6 km/h 4.8 km/h 78% 0 mm
05:30 -13.6 °C -16.6 °C 1041.5 hPa ESE 1.6 km/h 4.8 km/h 78% 0 mm
05:35 -13.7 °C -16.7 °C 1041.5 hPa SE 3.2 km/h 4.8 km/h 78% 0 mm
05:40 -13.8 °C -16.8 °C 1041.5 hPa ESE 1.6 km/h 4.8 km/h 78% 0 mm
05:45 -13.8 °C -16.8 °C 1041.5 hPa Calm   4.8 km/h 78% 0 mm
05:49 -13.9 °C -16.9 °C 1041.2 hPa ESE 1.6 km/h 9.7 km/h 78% 0 mm
05:55 -13.9 °C -16.9 °C 1041.2 hPa ESE 1.6 km/h 9.7 km/h 78% 0 mm
06:00 -13.9 °C -16.9 °C 1041.2 hPa ESE 3.2 km/h 9.7 km/h 78% 0 mm
06:05 -13.9 °C -16.9 °C 1041.2 hPa ESE 3.2 km/h 9.7 km/h 78% 0 mm
06:10 -13.9 °C -16.9 °C 1041.2 hPa ESE 1.6 km/h 8 km/h 78% 0 mm
06:15 -13.9 °C -16.9 °C 1041.2 hPa East 3.2 km/h 11.3 km/h 78% 0 mm
06:19 -13.9 °C -16.9 °C 1041.2 hPa East 3.2 km/h 11.3 km/h 78% 0 mm
06:24 -13.9 °C -16.9 °C 1041.2 hPa ESE 3.2 km/h 9.7 km/h 78% 0 mm
06:29 -14 °C -17 °C 1041.5 hPa SE 3.2 km/h 6.4 km/h 78% 0 mm
06:34 -13.9 °C -16.9 °C 1041.5 hPa Calm   4.8 km/h 78% 0 mm
06:39 -13.9 °C -16.9 °C 1041.5 hPa SE 3.2 km/h 4.8 km/h 78% 0 mm
06:44 -13.9 °C -17.1 °C 1041.5 hPa ESE 1.6 km/h 4.8 km/h 77% 0 mm
06:49 -13.9 °C -17.1 °C 1041.5 hPa ESE 1.6 km/h 4.8 km/h 77% 0 mm
06:54 -13.9 °C -17.1 °C 1041.5 hPa ESE 1.6 km/h 4.8 km/h 77% 0 mm
07:00 -13.8 °C -17 °C 1041.5 hPa SSE 4.8 km/h 6.4 km/h 77% 0 mm
07:05 -13.8 °C -16.9 °C 1041.5 hPa SSE 3.2 km/h 6.4 km/h 77% 0 mm
07:10 -13.7 °C -16.8 °C 1041.5 hPa SE 1.6 km/h 6.4 km/h 77% 0 mm
07:15 -13.6 °C -16.7 °C 1041.5 hPa East 3.2 km/h 4.8 km/h 77% 0 mm
07:20 -13.4 °C -16.8 °C 1041.5 hPa Calm   4.8 km/h 76% 0 mm
07:24 -13.3 °C -16.7 °C 1041.5 hPa SE 1.6 km/h 6.4 km/h 76% 0 mm
07:30 -13.2 °C -16.6 °C 1041.5 hPa ESE 3.2 km/h 9.7 km/h 76% 0 mm
07:34 -13.1 °C -16.4 °C 1041.5 hPa SE 1.6 km/h 11.3 km/h 76% 0 mm
07:39 -13 °C -16.5 °C 1041.5 hPa SSE 3.2 km/h 9.7 km/h 75% 0 mm
07:44 -12.8 °C -16.3 °C 1041.5 hPa SE 1.6 km/h 8 km/h 75% 0 mm
07:49 -12.4 °C -15.9 °C 1041.5 hPa ESE 4.8 km/h 8 km/h 75% 0 mm
07:55 -12.2 °C -15.9 °C 1041.5 hPa ESE 3.2 km/h 11.3 km/h 74% 0 mm
07:59 -11.9 °C -15.8 °C 1041.2 hPa ESE 4.8 km/h 9.7 km/h 73% 0 mm
08:04 -11.6 °C -15.5 °C 1041.5 hPa East 8 km/h 11.3 km/h 73% 0 mm
08:10 -11.2 °C -15.4 °C 1041.2 hPa East 1.6 km/h 11.3 km/h 71% 0 mm
08:15 -10.7 °C -14.9 °C 1041.5 hPa ENE 3.2 km/h 11.3 km/h 71% 0 mm
08:20 -10.3 °C -14.9 °C 1041.2 hPa ESE 4.8 km/h 9.7 km/h 69% 0 mm
08:24 -10 °C -14.8 °C 1041.2 hPa East 4.8 km/h 11.3 km/h 68% 0 mm
08:29 -9.5 °C -14.3 °C 1041.2 hPa East 3.2 km/h 11.3 km/h 68% 0 mm
08:35 -9.3 °C -14.4 °C 1041.2 hPa East 4.8 km/h 16.1 km/h 66% 0 mm
08:40 -8.9 °C -14.2 °C 1040.9 hPa East 4.8 km/h 16.1 km/h 66% 0 mm
08:44 -8.8 °C -14.2 °C 1040.9 hPa East 3.2 km/h 16.1 km/h 65% 0 mm
08:49 -8.4 °C -14.1 °C 1040.9 hPa ESE 6.4 km/h 14.5 km/h 64% 0 mm
08:54 -8.3 °C -14.1 °C 1040.9 hPa East 6.4 km/h 14.5 km/h 63% 0 mm
08:59 -8.1 °C -13.9 °C 1040.9 hPa ESE 8 km/h 16.1 km/h 63% 0 mm
09:05 -8 °C -14 °C 1040.9 hPa ENE 8 km/h 20.9 km/h 62% 0 mm
09:09 -7.7 °C -13.6 °C 1040.5 hPa ESE 11.3 km/h 17.7 km/h 63% 0 mm
09:15 -7.3 °C -13.3 °C 1040.5 hPa ESE 1.6 km/h 14.5 km/h 62% 0 mm
09:20 -7.1 °C -13.5 °C 1040.5 hPa SE 3.2 km/h 16.1 km/h 60% 0 mm
09:25 -6.8 °C -13.3 °C 1040.5 hPa SE 6.4 km/h 16.1 km/h 60% 0 mm
09:29 -6.8 °C -13.5 °C 1040.5 hPa ESE 8 km/h 16.1 km/h 59% 0 mm
09:34 -6.7 °C -13.8 °C 1040.5 hPa East 8 km/h 16.1 km/h 57% 0 mm
09:40 -6.5 °C -13.8 °C 1040.5 hPa East 8 km/h 17.7 km/h 56% 0 mm
09:45 -6.2 °C -13.6 °C 1040.5 hPa East 8 km/h 17.7 km/h 56% 0 mm
09:50 -6.1 °C -14.2 °C 1040.2 hPa East 8 km/h 16.1 km/h 53% 0 mm
09:55 -5.8 °C -13.7 °C 1040.5 hPa East 8 km/h 17.7 km/h 54% 0 mm
09:59 -5.7 °C -13.8 °C 1040.2 hPa East 3.2 km/h 17.7 km/h 53% 0 mm
10:04 -5.6 °C -14.2 °C 1040.2 hPa ENE 11.3 km/h 17.7 km/h 51% 0 mm
10:09 -5.4 °C -13.5 °C 1040.5 hPa East 12.9 km/h 12.9 km/h 53% 0 mm
10:14 -5.1 °C -13.9 °C 1040.2 hPa East 8 km/h 12.9 km/h 50% 0 mm
10:19 -4.9 °C -13.6 °C 1040.2 hPa ESE 6.4 km/h 17.7 km/h 51% 0 mm
10:25 -4.6 °C -13.7 °C 1039.8 hPa NNE 3.2 km/h 16.1 km/h 49% 0 mm
10:30 -4.4 °C -13.6 °C 1039.8 hPa SE 8 km/h 14.5 km/h 49% 0 mm
10:34 -4.3 °C -14 °C 1039.8 hPa ESE 8 km/h 16.1 km/h 47% 0 mm
10:39 -4.2 °C -13.6 °C 1039.8 hPa ESE 8 km/h 17.7 km/h 48% 0 mm
10:44 -4.3 °C -14.2 °C 1039.8 hPa East 8 km/h 17.7 km/h 46% 0 mm
10:49 -4.2 °C -14.3 °C 1039.8 hPa East 9.7 km/h 20.9 km/h 45% 0 mm
10:54 -3.9 °C -14.1 °C 1039.5 hPa ENE 8 km/h 17.7 km/h 45% 0 mm
10:59 -3.9 °C -14.4 °C 1039.5 hPa ESE 4.8 km/h 16.1 km/h 44% 0 mm
11:04 -3.5 °C -14.3 °C 1039.2 hPa East 4.8 km/h 17.7 km/h 43% 0 mm
11:09 -3.4 °C -14.6 °C 1039.2 hPa East 8 km/h 22.5 km/h 42% 0 mm
11:14 -3.3 °C -13.8 °C 1039.2 hPa NNE 14.5 km/h 16.1 km/h 44% 0 mm
11:19 -3.1 °C -14.2 °C 1038.8 hPa NE 8 km/h 22.5 km/h 42% 0 mm
11:24 -2.7 °C -13.6 °C 1038.5 hPa ENE 11.3 km/h 16.1 km/h 43% 0 mm
11:29 -2.9 °C -14.6 °C 1038.5 hPa NE 3.2 km/h 19.3 km/h 40% 0 mm
11:34 -2.2 °C -12.8 °C 1038.5 hPa SE 3.2 km/h 14.5 km/h 44% 0 mm
11:39 -1.8 °C -12.8 °C 1038.1 hPa East 6.4 km/h 14.5 km/h 43% 0 mm
11:44 -2.2 °C -13.4 °C 1038.1 hPa ENE 8 km/h 20.9 km/h 42% 0 mm
11:49 -2.1 °C -13.9 °C 1038.1 hPa East 9.7 km/h 20.9 km/h 40% 0 mm
11:54 -1.9 °C -13.7 °C 1038.1 hPa East 8 km/h 16.1 km/h 40% 0 mm
12:00 -1.7 °C -14.2 °C 1038.1 hPa East 8 km/h 17.7 km/h 38% 0 mm
12:05 -1.4 °C -12.4 °C 1038.1 hPa ENE 8 km/h 17.7 km/h 43% 0 mm
12:09 -1.5 °C -15 °C 1038.1 hPa East 1.6 km/h 14.5 km/h 35% 0 mm
12:14 -1.4 °C -14.3 °C 1037.8 hPa ENE 6.4 km/h 24.1 km/h 37% 0 mm
12:19 -1.2 °C -14.4 °C 1037.8 hPa ESE 12.9 km/h 14.5 km/h 36% 0 mm
12:24 -1.2 °C -14.1 °C 1037.8 hPa SSE 8 km/h 16.1 km/h 37% 0 mm
12:29 -1.1 °C -14.6 °C 1037.8 hPa ENE 11.3 km/h 14.5 km/h 35% 0 mm
12:34 -0.9 °C -13.8 °C 1037.5 hPa NE 4.8 km/h 16.1 km/h 37% 0 mm
12:39 -1.1 °C -15.3 °C 1037.5 hPa ESE 4.8 km/h 12.9 km/h 33% 0 mm
12:44 -0.8 °C -14.7 °C 1037.5 hPa SE 6.4 km/h 11.3 km/h 34% 0 mm
12:49 -0.4 °C -13 °C 1037.1 hPa ESE 6.4 km/h 17.7 km/h 38% 0 mm
12:54 -0.2 °C -12.8 °C 1037.1 hPa ESE 6.4 km/h 17.7 km/h 38% 0 mm
12:59 0 °C -13.7 °C 1037.1 hPa SE 4.8 km/h 12.9 km/h 35% 0 mm
13:04 -0.1 °C -14.1 °C 1036.8 hPa SE 8 km/h 16.1 km/h 34% 0 mm
13:10 -0.2 °C -14.6 °C 1036.8 hPa NE 4.8 km/h 11.3 km/h 33% 0 mm
13:15 -0.1 °C -13.4 °C 1036.8 hPa SSE 3.2 km/h 8 km/h 36% 0 mm
13:19 0.2 °C -14.6 °C 1036.5 hPa ESE 4.8 km/h 14.5 km/h 32% 0 mm
13:24 0.6 °C -14.3 °C 1036.1 hPa East 3.2 km/h 12.9 km/h 32% 0 mm
13:29 0.8 °C -15.7 °C 1036.1 hPa SSE 6.4 km/h 14.5 km/h 28% 0 mm
13:34 0.8 °C -14.4 °C 1036.1 hPa SE 6.4 km/h 14.5 km/h 31% 0 mm
13:39 0.6 °C -14.6 °C 1036.1 hPa East 4.8 km/h 16.1 km/h 31% 0 mm
13:44 0.4 °C -15.2 °C 1036.1 hPa South 3.2 km/h 12.9 km/h 30% 0 mm
13:49 0.8 °C -15.2 °C 1035.8 hPa East 6.4 km/h 12.9 km/h 29% 0 mm
13:54 0.6 °C -15.5 °C 1035.8 hPa East 6.4 km/h 16.1 km/h 29% 0 mm
13:59 1.1 °C -14.2 °C 1035.8 hPa ESE 4.8 km/h 16.1 km/h 31% 0 mm
14:04 0.8 °C -14.8 °C 1035.4 hPa East 4.8 km/h 14.5 km/h 30% 0 mm
14:09 1.1 °C -13.8 °C 1035.4 hPa East 3.2 km/h 9.7 km/h 32% 0 mm
14:14 1.6 °C -13.3 °C 1035.4 hPa East 9.7 km/h 9.7 km/h 32% 0 mm
14:20 1.2 °C -14.9 °C 1035.4 hPa ESE 6.4 km/h 16.1 km/h 29% 0 mm
14:24 0.8 °C -14.4 °C 1035.1 hPa ENE 8 km/h 16.1 km/h 31% 0 mm
14:29 0.8 °C -14.4 °C 1035.1 hPa ENE 6.4 km/h 12.9 km/h 31% 0 mm
14:34 1.2 °C -13.7 °C 1035.1 hPa ENE 4.8 km/h 12.9 km/h 32% 0 mm
14:39 1 °C -13.9 °C 1035.1 hPa NE 1.6 km/h 11.3 km/h 32% 0 mm
14:44 1.1 °C -13.8 °C 1035.1 hPa East 8 km/h 12.9 km/h 32% 0 mm
14:49 0.8 °C -14.8 °C 1035.1 hPa ENE 3.2 km/h 12.9 km/h 30% 0 mm
14:54 1.3 °C -13.6 °C 1034.8 hPa East 3.2 km/h 9.7 km/h 32% 0 mm
14:59 1.6 °C -13.8 °C 1034.8 hPa ESE 6.4 km/h 11.3 km/h 31% 0 mm
15:04 1.7 °C -13.3 °C 1034.8 hPa SE 6.4 km/h 12.9 km/h 32% 0 mm
15:09 1.5 °C -14.2 °C 1034.8 hPa NE 6.4 km/h 9.7 km/h 30% 0 mm
15:14 1.3 °C -13.7 °C 1034.4 hPa East 3.2 km/h 11.3 km/h 32% 0 mm
15:19 1.2 °C -14.1 °C 1034.4 hPa NNE 4.8 km/h 8 km/h 31% 0 mm
15:24 1.4 °C -13.2 °C 1034.8 hPa ENE 3.2 km/h 9.7 km/h 33% 0 mm
15:29 1.3 °C -13.3 °C 1034.8 hPa NE 4.8 km/h 9.7 km/h 33% 0 mm
15:34 1.7 °C -13.3 °C 1034.4 hPa ENE 4.8 km/h 8 km/h 32% 0 mm
15:39 1.7 °C -14.1 °C 1034.4 hPa ENE 3.2 km/h 8 km/h 30% 0 mm
15:44 1.6 °C -13 °C 1034.4 hPa NNE 3.2 km/h 8 km/h 33% 0 mm
15:49 1.6 °C -13.3 °C 1034.4 hPa NNE 4.8 km/h 11.3 km/h 32% 0 mm
15:55 1.6 °C -13.3 °C 1034.4 hPa ENE 1.6 km/h 8 km/h 32% 0 mm
15:59 1.8 °C -13.2 °C 1034.1 hPa NE 3.2 km/h 9.7 km/h 32% 0 mm
16:04 1.8 °C -13.6 °C 1034.1 hPa East 3.2 km/h 9.7 km/h 31% 0 mm
16:09 1.9 °C -13.4 °C 1034.1 hPa NE 1.6 km/h 12.9 km/h 31% 0 mm
16:14 1.9 °C -13.1 °C 1034.1 hPa East 4.8 km/h 12.9 km/h 32% 0 mm
16:19 1.9 °C -13.4 °C 1034.1 hPa NE 4.8 km/h 9.7 km/h 31% 0 mm
16:24 2.3 °C -13.5 °C 1034.1 hPa SE 4.8 km/h 8 km/h 30% 0 mm
16:29 2.7 °C -13.2 °C 1033.7 hPa East 3.2 km/h 11.3 km/h 30% 0 mm
16:34 2.6 °C -14.1 °C 1033.7 hPa East 4.8 km/h 12.9 km/h 28% 0 mm
16:39 2.4 °C -13.9 °C 1033.4 hPa ENE 8 km/h 11.3 km/h 29% 0 mm
16:44 2.3 °C -13.6 °C 1033.4 hPa ENE 6.4 km/h 14.5 km/h 30% 0 mm
16:49 2.2 °C -14.5 °C 1033.4 hPa SE 8 km/h 12.9 km/h 28% 0 mm
16:54 2.2 °C -13.6 °C 1033.1 hPa ENE 6.4 km/h 11.3 km/h 30% 0 mm
16:59 2.2 °C -13.7 °C 1033.1 hPa ENE 4.8 km/h 11.3 km/h 30% 0 mm
17:04 2.2 °C -13.2 °C 1032.7 hPa ENE 4.8 km/h 12.9 km/h 31% 0 mm
17:09 2.1 °C -13.3 °C 1032.7 hPa ENE 6.4 km/h 14.5 km/h 31% 0 mm
17:14 2 °C -13 °C 1032.7 hPa ENE 6.4 km/h 14.5 km/h 32% 0 mm
17:19 1.9 °C -13.1 °C 1032.7 hPa ESE 12.9 km/h 14.5 km/h 32% 0 mm
17:24 1.7 °C -12.9 °C 1032.7 hPa ENE 3.2 km/h 12.9 km/h 33% 0 mm
17:29 1.6 °C -13 °C 1033.1 hPa ENE 4.8 km/h 9.7 km/h 33% 0 mm
17:34 1.4 °C -12.7 °C 1032.7 hPa ENE 4.8 km/h 9.7 km/h 34% 0 mm
17:39 1.4 °C -11.7 °C 1033.1 hPa ENE 4.8 km/h 12.9 km/h 37% 0 mm
17:44 1.3 °C -11.8 °C 1032.7 hPa ENE 11.3 km/h 12.9 km/h 37% 0 mm
17:49 1.2 °C -11.6 °C 1032.7 hPa NNE 3.2 km/h 12.9 km/h 38% 0 mm
17:54 1 °C -9.9 °C 1032.7 hPa NE 6.4 km/h 8 km/h 44% 0 mm
17:59 0.7 °C -9.9 °C 1032.7 hPa NE 4.8 km/h 12.9 km/h 45% 0 mm
18:04 0.3 °C -9.7 °C 1032.7 hPa NE 6.4 km/h 12.9 km/h 47% 0 mm
18:09 0.1 °C -9.7 °C 1032.7 hPa NE 6.4 km/h 11.3 km/h 48% 0 mm
18:14 -0.2 °C -9.6 °C 1032.7 hPa NE 6.4 km/h 11.3 km/h 49% 0 mm
18:19 -0.4 °C -9.6 °C 1032.7 hPa NE 8 km/h 14.5 km/h 50% 0 mm
18:24 -0.6 °C -9.5 °C 1032.7 hPa NE 11.3 km/h 14.5 km/h 51% 0 mm
18:29 -0.8 °C -9.7 °C 1032.7 hPa NE 6.4 km/h 11.3 km/h 51% 0 mm
18:34 -0.9 °C -9.5 °C 1032.7 hPa NE 8 km/h 12.9 km/h 52% 0 mm
18:39 -0.9 °C -9.6 °C 1032.7 hPa NE 6.4 km/h 14.5 km/h 52% 0 mm
18:44 -1.1 °C -9.7 °C 1032.7 hPa NE 6.4 km/h 14.5 km/h 52% 0 mm
18:49 -1.1 °C -9.5 °C 1032.7 hPa NE 6.4 km/h 14.5 km/h 53% 0 mm
18:54 -1.2 °C -9.8 °C 1032.7 hPa ENE 6.4 km/h 12.9 km/h 52% 0 mm
18:59 -1.2 °C -10.1 °C 1032.7 hPa ENE 8 km/h 11.3 km/h 51% 0 mm
19:04 -1.2 °C -10.1 °C 1032.4 hPa ENE 4.8 km/h 12.9 km/h 51% 0 mm
19:09 -1.3 °C -10.1 °C 1032.4 hPa ENE 6.4 km/h 16.1 km/h 51% 0 mm
19:14 -1.3 °C -10.1 °C 1032.4 hPa ENE 4.8 km/h 16.1 km/h 51% 0 mm
19:19 -1.3 °C -10.2 °C 1032.1 hPa NE 6.4 km/h 11.3 km/h 51% 0 mm
19:24 -1.4 °C -10.2 °C 1032.1 hPa East 11.3 km/h 14.5 km/h 51% 0 mm
19:29 -1.4 °C -10.3 °C 1032.1 hPa ENE 4.8 km/h 11.3 km/h 51% 0 mm
19:34 -1.5 °C -10.1 °C 1032.1 hPa East 1.6 km/h 12.9 km/h 52% 0 mm
19:39 -1.6 °C -10.2 °C 1032.1 hPa ENE 4.8 km/h 14.5 km/h 52% 0 mm
19:44 -1.7 °C -10 °C 1031.7 hPa ENE 6.4 km/h 14.5 km/h 53% 0 mm
19:49 -1.7 °C -10.1 °C 1031.7 hPa ENE 4.8 km/h 12.9 km/h 53% 0 mm
19:54 -1.8 °C -9.9 °C 1031.7 hPa East 4.8 km/h 12.9 km/h 54% 0 mm
19:59 -1.8 °C -9.9 °C 1031.7 hPa East 4.8 km/h 12.9 km/h 54% 0 mm
20:04 -1.9 °C -10 °C 1031.7 hPa ENE 4.8 km/h 11.3 km/h 54% 0 mm
20:09 -1.9 °C -10.1 °C 1031.4 hPa East 4.8 km/h 14.5 km/h 54% 0 mm
20:14 -1.9 °C -10.1 °C 1031.4 hPa East 6.4 km/h 14.5 km/h 54% 0 mm
20:19 -2 °C -10.1 °C 1031 hPa East 9.7 km/h 14.5 km/h 54% 0 mm
20:24 -2.1 °C -9.9 °C 1031 hPa East 4.8 km/h 12.9 km/h 55% 0 mm
20:29 -2.1 °C -9.9 °C 1031 hPa East 8 km/h 12.9 km/h 55% 0 mm
20:34 -2.2 °C -10 °C 1031 hPa ENE 1.6 km/h 11.3 km/h 55% 0 mm
20:39 -2.2 °C -9.8 °C 1031 hPa NNE 4.8 km/h 11.3 km/h 56% 0 mm
20:44 -2.3 °C -9.9 °C 1031 hPa East 4.8 km/h 11.3 km/h 56% 0 mm
20:49 -2.3 °C -9.9 °C 1030.7 hPa East 4.8 km/h 11.3 km/h 56% 0 mm
20:54 -2.4 °C -10 °C 1030.7 hPa East 4.8 km/h 14.5 km/h 56% 0 mm
20:59 -2.4 °C -9.8 °C 1030.7 hPa ENE 3.2 km/h 11.3 km/h 57% 0 mm
21:04 -2.3 °C -9.7 °C 1030.4 hPa East 3.2 km/h 11.3 km/h 57% 0 mm
21:09 -2.3 °C -9.7 °C 1030.4 hPa ESE 3.2 km/h 9.7 km/h 57% 0 mm
21:14 -2.3 °C -9.7 °C 1030.4 hPa East 3.2 km/h 8 km/h 57% 0 mm
21:19 -2.3 °C -9.9 °C 1030.4 hPa East 4.8 km/h 9.7 km/h 56% 0 mm
21:24 -2.3 °C -9.9 °C 1030 hPa ENE 4.8 km/h 8 km/h 56% 0 mm
21:29 -2.3 °C -9.9 °C 1030.4 hPa ENE 3.2 km/h 8 km/h 56% 0 mm
21:34 -2.3 °C -9.9 °C 1030.4 hPa East 4.8 km/h 6.4 km/h 56% 0 mm
21:39 -2.4 °C -10 °C 1030 hPa East 3.2 km/h 11.3 km/h 56% 0 mm
21:44 -2.3 °C -9.7 °C 1030 hPa NE 3.2 km/h 8 km/h 57% 0 mm
21:49 -2.3 °C -9.9 °C 1030 hPa ENE 4.8 km/h 9.7 km/h 56% 0 mm
21:54 -2.4 °C -10 °C 1030 hPa ENE 4.8 km/h 9.7 km/h 56% 0 mm
21:59 -2.4 °C -10 °C 1030 hPa ENE 3.2 km/h 8 km/h 56% 0 mm
22:04 -2.4 °C -10 °C 1030 hPa ENE 3.2 km/h 8 km/h 56% 0 mm
22:09 -2.4 °C -9.8 °C 1030 hPa NE 3.2 km/h 6.4 km/h 57% 0 mm
22:14 -2.4 °C -9.8 °C 1030 hPa NE 3.2 km/h 6.4 km/h 57% 0 mm
22:19 -2.4 °C -9.8 °C 1030 hPa NE 6.4 km/h 6.4 km/h 57% 0 mm
22:24 -2.4 °C -9.8 °C 1029.7 hPa NE 4.8 km/h 8 km/h 57% 0 mm
22:29 -2.4 °C -9.8 °C 1029.7 hPa ENE 1.6 km/h 8 km/h 57% 0 mm
22:34 -2.4 °C -9.8 °C 1029.7 hPa NE 3.2 km/h 8 km/h 57% 0 mm
22:39 -2.5 °C -9.7 °C 1029.7 hPa Calm   3.2 km/h 58% 0 mm
22:44 -2.5 °C -9.7 °C 1029.7 hPa NE 1.6 km/h 4.8 km/h 58% 0 mm
22:49 -2.5 °C -9.4 °C 1029.7 hPa Calm   3.2 km/h 59% 0 mm
22:54 -2.6 °C -9.7 °C 1029.7 hPa Calm     58% 0 mm
22:59 -2.6 °C -9.7 °C 1029.7 hPa Calm     58% 0 mm
23:04 -2.6 °C -9.7 °C 1029.7 hPa Calm     58% 0 mm
23:09 -2.5 °C -9.7 °C 1029.7 hPa Calm     58% 0 mm
23:14 -2.4 °C -9.6 °C 1029.7 hPa Calm   3.2 km/h 58% 0 mm
23:19 -2.4 °C -9.6 °C 1029.3 hPa Calm     58% 0 mm
23:24 -2.4 °C -9.6 °C 1029.3 hPa Calm     58% 0 mm
23:29 -2.4 °C -9.6 °C 1029.3 hPa Calm     58% 0 mm
23:34 -2.5 °C -9.4 °C 1029.3 hPa Calm     59% 0 mm
23:39 -2.7 °C -9.4 °C 1029.3 hPa Calm     60% 0 mm
23:44 -2.8 °C -9.5 °C 1029 hPa Calm     60% 0 mm
23:49 -2.8 °C -9.5 °C 1029 hPa Calm     60% 0 mm
23:54 -2.8 °C -9.5 °C 1029 hPa Calm     60% 0 mm
23:59 -2.8 °C -9.5 °C 1029 hPa Calm     60% 0 mm
Buffalo, New York, USA
Compliments of Weather Underground - 2.5 mb